Hatch, New Mexico
Current Conditions -  °F | °C
As of 3:15 PM on Thursday 23 Oct 2014 (Local Time) from KLRU Reporting Station
Clear Clear  
Wind Chill: 78°   Ceiling: Unl
Heat Index: 78°   Visibility: 10mi
Dew Point: 48°   Wind: 5mph
Humidity: 36%   Direction: 180°S
Pressure: 30.18"   Gusts: NA
Location:  32.67°N, 107.15°W
Report Text: KLRU 232115Z AUTO 18004KT 10SM CLR 25/09 A3018 RMK AO2 T02530091
Loading
Personal Weather Stations






























Interactive Weather Map
Tropical Storm Tracking
New forecast layout! Learn more

10-Day Weather Forecast

Advertisements
Track Severe Weather on mobile